Time;durP1;ratioP1;P1;durP2;ratioP2;P2;SDS_P1;SDS_P2;PMS_P1;PMS_P2;Temp;Humidity;BMP_temperature;BMP_pressure;BME280_temperature;BME280_humidity;BME280_pressure;Samples;Min_cycle;Max_cycle;Signal;HPM_P1;HPM_P2
2021/10/28 00:12:24;;;;;;;0.40;0.20;;;;;;;14.70;61.68;101192.54;111317;1193;138009;-76
2021/10/28 00:14:57;;;;;;;0.40;0.20;;;;;;;14.72;61.68;101193.40;111763;1192;107939;-76
2021/10/28 00:20:09;;;;;;;0.40;0.20;;;;;;;14.73;61.67;101192.83;111606;1193;95301;-77
2021/10/28 00:22:38;;;;;;;0.40;0.20;;;;;;;14.72;61.77;101195.52;111729;1192;138139;-77
2021/10/28 00:25:08;;;;;;;0.40;0.20;;;;;;;14.71;61.85;101196.98;111741;1193;109263;-77
2021/10/28 00:27:36;;;;;;;0.40;0.10;;;;;;;14.71;61.78;101197.71;111495;1193;108587;-75
2021/10/28 00:30:04;;;;;;;0.40;0.20;;;;;;;14.72;61.88;101196.77;111721;1192;139704;-76
2021/10/28 00:32:34;;;;;;;0.40;0.20;;;;;;;14.72;61.77;101191.06;111788;1192;94988;-75
2021/10/28 00:35:03;;;;;;;0.40;0.20;;;;;;;14.75;61.81;101192.58;111575;1192;139361;-75
2021/10/28 00:37:31;;;;;;;0.40;0.10;;;;;;;14.75;61.89;101189.71;111830;1193;110350;-76
2021/10/28 00:39:59;;;;;;;0.40;0.20;;;;;;;14.82;61.83;101191.12;111733;1193;95714;-77
2021/10/28 00:42:27;;;;;;;0.40;0.10;;;;;;;14.89;61.58;101185.54;111571;1193;138754;-77
2021/10/28 00:44:55;;;;;;;0.40;0.20;;;;;;;14.81;61.56;101185.04;111523;1196;107487;-77
2021/10/28 00:47:22;;;;;;;0.40;0.20;;;;;;;14.82;61.81;101184.65;111695;1192;138531;-76
2021/10/28 00:49:50;;;;;;;0.40;0.10;;;;;;;14.79;61.69;101180.48;111692;1192;94862;-76
2021/10/28 00:52:18;;;;;;;0.40;0.20;;;;;;;14.78;61.83;101176.95;111836;1192;95293;-77
2021/10/28 00:54:46;;;;;;;0.40;0.20;;;;;;;14.81;61.92;101187.20;111645;1192;137283;-77
2021/10/28 00:57:14;;;;;;;0.40;0.20;;;;;;;14.83;61.78;101184.29;111557;1192;109506;-75
2021/10/28 00:59:43;;;;;;;0.40;0.20;;;;;;;14.87;61.72;101185.41;111711;1192;138694;-77
2021/10/28 01:02:11;;;;;;;0.40;0.10;;;;;;;14.93;61.74;101180.02;111795;1192;95069;-77
2021/10/28 01:04:40;;;;;;;0.40;0.20;;;;;;;14.91;61.60;101182.08;111749;1193;137712;-76
2021/10/28 01:07:08;;;;;;;0.40;0.20;;;;;;;14.85;61.59;101185.84;111539;1192;108533;-76
2021/10/28 01:09:35;;;;;;;0.40;0.20;;;;;;;14.82;61.74;101181.10;111791;1192;94787;-77
2021/10/28 01:12:04;;;;;;;0.40;0.20;;;;;;;14.78;61.70;101179.63;111560;1192;138652;-77
2021/10/28 01:14:45;;;;;;;0.40;0.20;;;;;;;14.77;61.90;101177.48;111797;1192;108853;-77
2021/10/28 01:17:14;;;;;;;0.40;0.20;;;;;;;14.80;61.73;101177.59;111705;1192;137775;-76
2021/10/28 01:19:43;;;;;;;0.40;0.20;;;;;;;14.77;61.89;101169.97;111924;1192;97280;-76
2021/10/28 01:22:11;;;;;;;0.40;0.10;;;;;;;14.80;61.81;101169.54;111790;1192;95392;-77
2021/10/28 01:24:39;;;;;;;0.40;0.10;;;;;;;14.81;61.85;101163.98;111436;1193;139030;-77
2021/10/28 01:27:08;;;;;;;0.40;0.20;;;;;;;14.81;61.89;101164.33;111558;1192;108957;-77
2021/10/28 01:29:36;;;;;;;0.40;0.20;;;;;;;14.83;61.89;101164.08;111729;1192;138400;-76
2021/10/28 01:32:05;;;;;;;0.40;0.10;;;;;;;14.90;61.69;101161.37;111743;1192;94901;-76
2021/10/28 01:34:41;;;;;;;0.40;0.20;;;;;;;14.87;61.56;101166.25;111646;1193;137844;-77
2021/10/28 01:37:11;;;;;;;0.40;0.10;;;;;;;14.84;61.63;101166.73;111828;1192;107356;-77
2021/10/28 01:39:41;;;;;;;0.40;0.20;;;;;;;14.77;61.67;101161.79;111911;1192;95450;-77
2021/10/28 01:42:10;;;;;;;0.40;0.10;;;;;;;14.70;62.03;101162.68;111699;1192;138499;-76
2021/10/28 01:44:38;;;;;;;0.40;0.20;;;;;;;14.69;62.04;101161.13;111774;1192;108044;-76
2021/10/28 01:47:07;;;;;;;0.40;0.20;;;;;;;14.68;62.03;101160.79;111715;1192;139195;-76
2021/10/28 01:49:35;;;;;;;0.40;0.20;;;;;;;14.64;62.06;101162.54;111606;1193;95029;-77
2021/10/28 01:52:03;;;;;;;0.40;0.20;;;;;;;14.61;62.20;101169.38;111699;1192;95413;-77
2021/10/28 01:54:31;;;;;;;0.40;0.20;;;;;;;14.65;62.29;101163.92;111431;1193;139170;-77
2021/10/28 01:56:59;;;;;;;0.40;0.20;;;;;;;14.71;62.16;101163.73;111792;1192;108249;-77
2021/10/28 01:59:27;;;;;;;0.40;0.20;;;;;;;14.68;62.17;101161.52;111699;1192;139489;-77
2021/10/28 02:01:55;;;;;;;0.40;0.20;;;;;;;14.66;62.06;101164.42;111723;1193;94910;-78
2021/10/28 02:04:24;;;;;;;0.40;0.10;;;;;;;14.70;62.17;101158.94;111801;1192;108475;-76
2021/10/28 02:06:53;;;;;;;0.40;0.20;;;;;;;14.78;62.06;101157.27;112013;1192;137714;-76
2021/10/28 02:09:20;;;;;;;0.40;0.10;;;;;;;14.78;61.84;101155.85;111677;1193;94947;-76
2021/10/28 02:11:48;;;;;;;0.40;0.20;;;;;;;14.74;61.78;101159.89;111744;1192;137492;-76
2021/10/28 02:14:16;;;;;;;0.40;0.20;;;;;;;14.66;61.89;101158.17;111795;1192;107548;-77
2021/10/28 02:16:44;;;;;;;0.40;0.10;;;;;;;14.72;61.93;101153.70;111534;1193;139657;-77
2021/10/28 02:19:12;;;;;;;0.40;0.20;;;;;;;14.76;61.96;101157.14;111763;1192;94985;-75
2021/10/28 02:21:40;;;;;;;0.40;0.20;;;;;;;14.80;61.85;101156.65;111799;1192;95301;-77
2021/10/28 02:24:09;;;;;;;0.40;0.20;;;;;;;14.88;61.71;101153.19;111634;1192;138306;-77
2021/10/28 02:26:37;;;;;;;0.40;0.10;;;;;;;14.90;61.48;101150.81;111786;1192;109286;-77
2021/10/28 02:29:05;;;;;;;0.40;0.10;;;;;;;14.92;61.52;101149.67;111657;1192;139321;-76
2021/10/28 02:31:34;;;;;;;0.40;0.10;;;;;;;14.92;61.38;101147.36;111709;1192;95101;-77
2021/10/28 02:34:02;;;;;;;0.40;0.20;;;;;;;14.82;61.38;101151.05;111750;1192;108585;-77
2021/10/28 02:36:30;;;;;;;0.40;0.10;;;;;;;14.79;61.54;101152.41;111383;1194;138835;-76
2021/10/28 02:38:58;;;;;;;0.40;0.20;;;;;;;14.78;61.61;101153.70;111779;1192;97238;-78
2021/10/28 02:41:26;;;;;;;0.40;0.20;;;;;;;14.76;61.64;101159.13;111651;1192;138301;-78
2021/10/28 02:43:54;;;;;;;0.40;0.10;;;;;;;14.67;61.65;101160.66;111794;1192;107489;-77
2021/10/28 02:46:22;;;;;;;0.40;0.20;;;;;;;14.62;61.87;101162.38;111758;1192;108440;-77
2021/10/28 02:48:49;;;;;;;0.40;0.20;;;;;;;14.68;61.94;101160.45;111690;1193;139103;-77
2021/10/28 02:51:18;;;;;;;0.40;0.20;;;;;;;14.68;61.81;101168.30;111829;1192;95391;-77
2021/10/28 02:53:46;;;;;;;0.40;0.20;;;;;;;14.65;61.66;101164.27;111645;1193;137751;-77
2021/10/28 02:56:14;;;;;;;0.40;0.20;;;;;;;14.65;61.91;101169.65;111842;1192;106540;-77
2021/10/28 02:58:42;;;;;;;0.40;0.20;;;;;;;14.66;61.82;101170.71;111673;1192;138179;-77
2021/10/28 03:01:10;;;;;;;0.40;0.20;;;;;;;14.66;61.78;101173.17;111778;1193;95310;-77
2021/10/28 03:03:38;;;;;;;0.40;0.20;;;;;;;14.57;61.82;101176.28;111707;1194;107852;-77
2021/10/28 03:06:06;;;;;;;0.40;0.20;;;;;;;14.52;61.96;101178.77;111689;1192;138251;-77
2021/10/28 03:08:34;;;;;;;0.40;0.20;;;;;;;14.52;62.15;101179.48;111802;1192;95890;-77
2021/10/28 03:11:06;;;;;;;0.40;0.20;;;;;;;14.61;62.14;101179.95;111657;1193;138361;-78
2021/10/28 03:13:35;;;;;;;0.40;0.10;;;;;;;14.66;61.90;101179.25;111758;1192;107541;-77
2021/10/28 03:27:06;;;;;;;0.40;0.20;;;;;;;14.58;61.95;101200.57;111646;1193;110216;-77
2021/10/28 03:29:33;;;;;;;0.40;0.20;;;;;;;14.57;62.08;101205.79;111447;1193;138649;-77
2021/10/28 03:32:02;;;;;;;0.40;0.20;;;;;;;14.61;62.13;101207.11;111680;1192;95419;-76
2021/10/28 03:34:30;;;;;;;0.40;0.20;;;;;;;14.66;61.91;101210.19;111542;1193;107239;-77
2021/10/28 03:47:39;;;;;;;0.40;0.20;;;;;;;14.77;61.72;101221.30;111450;1193;138171;-76
2021/10/28 04:30:25;;;;;;;0.40;0.10;;;;;;;14.67;61.49;101235.91;111596;1192;138404;-76
2021/10/28 04:32:53;;;;;;;0.40;0.10;;;;;;;14.66;61.72;101236.47;111770;1193;95425;-76
2021/10/28 04:35:21;;;;;;;0.40;0.20;;;;;;;14.67;61.65;101236.06;111578;1193;137675;-77
2021/10/28 04:37:49;;;;;;;0.40;0.20;;;;;;;14.69;61.60;101240.50;111518;1194;108268;-75
2021/10/28 04:40:17;;;;;;;0.40;0.10;;;;;;;14.73;61.46;101238.23;111728;1193;109297;-78
2021/10/28 04:42:45;;;;;;;0.40;0.20;;;;;;;14.68;61.45;101238.00;111470;1193;139830;-77
2021/10/28 04:45:13;;;;;;;0.40;0.20;;;;;;;14.73;61.44;101237.33;111649;1193;94912;-76
2021/10/28 04:47:40;;;;;;;0.40;0.20;;;;;;;14.66;61.46;101240.23;111425;1193;138612;-77
2021/10/28 04:50:09;;;;;;;0.40;0.20;;;;;;;14.66;61.66;101245.40;111723;1192;108482;-77
2021/10/28 04:52:37;;;;;;;0.40;0.20;;;;;;;14.72;61.61;101240.05;111630;1193;139110;-77
2021/10/28 04:55:05;;;;;;;0.40;0.20;;;;;;;14.73;61.42;101242.16;111919;1192;95283;-77
2021/10/28 04:57:33;;;;;;;0.40;0.20;;;;;;;14.60;61.56;101248.41;111870;1192;108794;-77
2021/10/28 05:00:04;;;;;;;0.40;0.20;;;;;;;14.64;61.66;101248.85;111776;1193;139373;-75
2021/10/28 05:02:32;;;;;;;0.40;0.20;;;;;;;14.76;61.42;101249.05;111948;1192;95453;-76
2021/10/28 05:05:00;;;;;;;0.40;0.20;;;;;;;14.71;61.33;101253.31;111823;1192;139554;-77
2021/10/28 05:07:28;;;;;;;0.40;0.20;;;;;;;14.65;61.58;101260.09;112096;1193;108157;-76
2021/10/28 05:09:56;;;;;;;0.40;0.20;;;;;;;14.64;61.60;101260.84;111613;1193;107469;-78
2021/10/28 05:12:24;;;;;;;0.40;0.20;;;;;;;14.67;61.48;101263.25;111541;1193;138649;-77
2021/10/28 05:14:52;;;;;;;0.40;0.20;;;;;;;14.69;61.37;101261.21;111923;1192;97661;-77
2021/10/28 05:17:19;;;;;;;0.40;0.20;;;;;;;14.69;61.26;101261.92;111802;1192;141089;-77
2021/10/28 05:19:49;;;;;;;0.40;0.20;;;;;;;14.68;61.25;101264.98;111682;1193;109864;-77
2021/10/28 05:22:18;;;;;;;0.40;0.20;;;;;;;14.67;61.34;101265.04;111854;1193;95890;-76
2021/10/28 05:24:46;;;;;;;0.40;0.20;;;;;;;14.63;61.40;101265.30;111652;1193;138366;-76
2021/10/28 05:27:14;;;;;;;0.40;0.10;;;;;;;14.67;61.33;101262.69;111732;1193;108458;-76
2021/10/28 05:30:02;;;;;;;0.40;0.20;;;;;;;14.65;61.36;101270.64;111564;1193;137587;-77
2021/10/28 05:32:30;;;;;;;0.40;0.20;;;;;;;14.59;61.43;101266.13;111747;1192;95401;-75
2021/10/28 05:35:00;;;;;;;0.40;0.20;;;;;;;14.65;61.50;101274.02;111664;1193;137818;-77
2021/10/28 05:37:28;;;;;;;0.40;0.20;;;;;;;14.63;61.38;101274.27;111642;1193;107499;-77
2021/10/28 05:39:59;;;;;;;0.40;0.20;;;;;;;14.57;61.45;101276.55;111739;1193;109319;-76
2021/10/28 05:42:28;;;;;;;0.40;0.20;;;;;;;14.48;61.62;101278.77;111583;1194;137630;-77
2021/10/28 05:44:56;;;;;;;0.40;0.20;;;;;;;14.49;61.51;101283.03;111751;1193;94892;-76
2021/10/28 05:47:24;;;;;;;0.40;0.20;;;;;;;14.47;61.72;101280.41;111307;1195;137864;-77
2021/10/28 05:50:17;;;;;;;0.40;0.20;;;;;;;14.44;61.68;101282.30;111665;1193;109030;-77
2021/10/28 05:52:46;;;;;;;0.40;0.20;;;;;;;14.38;61.88;101285.13;111600;1193;137728;-77
2021/10/28 05:55:15;;;;;;;0.40;0.20;;;;;;;14.42;61.87;101285.73;111725;1193;94905;-77
2021/10/28 05:57:43;;;;;;;0.40;0.20;;;;;;;14.41;61.94;101284.86;111529;1193;108059;-77
2021/10/28 06:00:12;;;;;;;0.40;0.20;;;;;;;14.47;61.83;101287.92;111469;1193;137593;-76
2021/10/28 06:02:40;;;;;;;0.40;0.20;;;;;;;14.48;61.79;101288.41;111509;1194;96391;-77
2021/10/28 06:05:09;;;;;;;0.40;0.20;;;;;;;14.49;61.79;101290.35;111530;1192;138897;-77
2021/10/28 06:07:37;;;;;;;0.40;0.20;;;;;;;14.56;61.65;101291.94;111531;1195;108242;-78
2021/10/28 06:10:06;;;;;;;0.40;0.10;;;;;;;14.59;61.57;101297.42;111660;1193;108445;-77
2021/10/28 06:12:43;;;;;;;0.40;0.20;;;;;;;14.55;61.45;101295.01;111442;1193;138391;-77
2021/10/28 06:15:13;;;;;;;0.40;0.20;;;;;;;14.58;61.59;101297.61;111615;1193;94852;-76
2021/10/28 06:18:24;;;;;;;0.40;0.20;;;;;;;14.59;61.46;101297.02;111622;1192;138424;-77
2021/10/28 06:20:34;;;;;;;0.40;0.20;;;;;;;14.66;61.63;101297.05;111524;1193;109378;-77
2021/10/28 06:23:01;;;;;;;0.40;0.20;;;;;;;14.75;61.24;101299.31;111588;1193;137732;-77
2021/10/28 06:25:29;;;;;;;0.40;0.20;;;;;;;14.67;61.33;101302.56;111882;1192;95019;-77
2021/10/28 06:27:57;;;;;;;0.40;0.20;;;;;;;14.65;61.37;101304.95;111826;1192;107482;-75
2021/10/28 06:30:25;;;;;;;0.40;0.20;;;;;;;14.67;61.50;101306.14;111471;1193;139664;-76
2021/10/28 06:32:56;;;;;;;0.40;0.20;;;;;;;14.67;61.54;101307.77;111823;1192;95435;-78
2021/10/28 06:35:25;;;;;;;0.40;0.20;;;;;;;14.66;61.56;101309.75;111750;1193;138675;-76
2021/10/28 06:37:54;;;;;;;0.40;0.20;;;;;;;14.66;61.64;101311.36;111862;1192;108535;-77
2021/10/28 06:40:24;;;;;;;0.40;0.20;;;;;;;14.72;61.45;101311.02;111867;1193;109430;-77
2021/10/28 06:42:52;;;;;;;0.40;0.20;;;;;;;14.76;61.28;101315.55;111428;1193;137722;-76
2021/10/28 06:45:20;;;;;;;0.40;0.20;;;;;;;14.79;61.27;101314.91;111676;1193;95422;-77
2021/10/28 06:47:53;;;;;;;0.40;0.20;;;;;;;14.70;61.49;101315.35;111776;1193;138168;-77
2021/10/28 06:50:26;;;;;;;0.40;0.20;;;;;;;14.69;61.60;101312.89;111485;1193;108122;-78
2021/10/28 06:53:05;;;;;;;0.40;0.20;;;;;;;14.73;61.48;101316.89;111459;1193;139033;-78
2021/10/28 07:03:30;;;;;;;0.40;0.20;;;;;;;14.85;61.11;101329.94;111870;1193;95212;-77
2021/10/28 07:06:04;;;;;;;0.40;0.20;;;;;;;14.86;61.25;101329.19;111626;1193;137603;-78
2021/10/28 07:08:33;;;;;;;0.40;0.20;;;;;;;14.93;61.10;101325.59;111573;1193;108606;-78
2021/10/28 07:11:06;;;;;;;0.40;0.20;;;;;;;14.95;60.95;101331.27;111535;1193;138805;-77
2021/10/28 07:13:36;;;;;;;0.40;0.20;;;;;;;14.93;60.72;101328.81;111610;1193;95327;-77
2021/10/28 07:16:13;;;;;;;0.40;0.20;;;;;;;14.91;60.77;101327.08;111821;1193;95383;-77
2021/10/28 07:26:42;;;;;;;0.40;0.20;;;;;;;14.95;60.81;101322.15;111596;1192;96622;-78
2021/10/28 07:34:58;;;;;;;0.40;0.20;;;;;;;14.86;60.82;101320.60;111213;1193;138602;-77
2021/10/28 08:13:57;;;;;;;0.40;0.10;;;;;;;15.09;59.74;101325.11;111651;1193;106300;-77
2021/10/28 08:17:23;;;;;;;0.40;0.20;;;;;;;15.09;59.88;101331.74;111519;1193;108629;-77
2021/10/28 08:21:56;;;;;;;0.40;0.20;;;;;;;15.27;59.92;101332.61;111577;1193;95392;-78
2021/10/28 08:29:44;;;;;;;0.40;0.20;;;;;;;15.63;59.18;101332.58;111563;1193;139168;-77
2021/10/28 08:32:13;;;;;;;0.40;0.20;;;;;;;15.70;58.98;101331.79;111724;1192;95897;-78
2021/10/28 08:34:43;;;;;;;0.40;0.20;;;;;;;15.70;58.64;101333.95;111982;1193;108903;-76
2021/10/28 08:37:15;;;;;;;0.40;0.20;;;;;;;15.65;58.57;101333.77;111555;1193;138611;-76
2021/10/28 08:39:44;;;;;;;0.40;0.20;;;;;;;15.59;58.53;101332.17;111627;1193;95429;-76
2021/10/28 08:42:15;;;;;;;0.40;0.10;;;;;;;15.57;58.73;101333.48;111516;1193;138714;-77
2021/10/28 08:44:52;;;;;;;0.40;0.20;;;;;;;15.57;58.56;101333.48;111526;1193;107569;-76
2021/10/28 08:47:22;;;;;;;0.40;0.20;;;;;;;15.45;58.34;101331.71;111525;1193;138815;-77
2021/10/28 08:49:58;;;;;;;0.40;0.20;;;;;;;15.41;58.78;101329.67;111503;1193;94971;-76
2021/10/28 08:55:16;;;;;;;0.40;0.10;;;;;;;15.57;58.50;101327.20;111431;1193;137480;-77
2021/10/28 08:58:07;;;;;;;0.40;0.20;;;;;;;15.51;58.44;101324.71;111535;1193;108524;-76
2021/10/28 09:24:08;;;;;;;0.40;0.20;;;;;;;15.54;58.42;101326.23;111461;1192;137525;-77
2021/10/28 09:51:45;;;;;;;0.40;0.20;;;;;;;15.89;57.23;101333.52;111466;1192;108824;-77
2021/10/28 10:00:11;;;;;;;0.40;0.10;;;;;;;16.08;57.10;101328.24;111561;1193;137483;-78
2021/10/28 10:02:43;;;;;;;0.40;0.10;;;;;;;16.16;56.73;101322.23;111724;1193;107524;-77
2021/10/28 10:05:24;;;;;;;0.40;0.20;;;;;;;16.17;56.55;101329.71;111345;1193;137763;-77
2021/10/28 10:07:55;;;;;;;0.40;0.20;;;;;;;16.09;56.27;101331.08;111644;1193;95172;-77
2021/10/28 10:10:25;;;;;;;0.40;0.20;;;;;;;15.98;56.84;101328.92;111663;1193;95441;-77
2021/10/28 10:12:55;;;;;;;0.40;0.20;;;;;;;16.02;57.01;101329.88;111416;1193;137772;-78
2021/10/28 10:15:23;;;;;;;0.40;0.10;;;;;;;16.00;56.71;101329.05;111685;1192;108493;-76
2021/10/28 10:17:58;;;;;;;0.40;0.20;;;;;;;15.96;56.53;101332.60;111470;1194;138972;-76
2021/10/28 10:20:40;;;;;;;0.40;0.20;;;;;;;15.88;56.67;101331.95;111655;1192;94857;-77
2021/10/28 11:15:58;;;;;;;0.40;0.10;;;;;;;16.03;55.45;101329.30;111658;1192;95382;-78
2021/10/28 11:27:52;;;;;;;0.40;0.20;;;;;;;16.02;55.19;101323.77;111910;1192;96357;-76
2021/10/28 12:28:00;;;;;;;0.40;0.10;;;;;;;16.00;54.66;101280.65;111487;1192;137584;-78
2021/10/28 12:43:52;;;;;;;0.40;0.10;;;;;;;15.97;54.90;101272.19;111692;1192;138209;-77
2021/10/28 13:06:44;;;;;;;0.40;0.10;;;;;;;15.93;54.72;101265.70;111642;1193;138746;-77
2021/10/28 14:38:09;;;;;;;0.40;0.10;;;;;;;14.73;58.63;101249.68;111466;1193;137924;-77
2021/10/28 15:30:32;;;;;;;0.40;0.20;;;;;;;14.54;59.96;101235.54;111496;1192;107553;-77
2021/10/28 15:36:12;;;;;;;0.40;0.20;;;;;;;14.40;59.87;101230.94;111699;1192;94981;-76
2021/10/28 15:38:49;;;;;;;0.40;0.20;;;;;;;14.37;59.96;101231.38;111636;1193;139015;-77
2021/10/28 15:57:59;;;;;;;0.40;0.20;;;;;;;14.08;60.28;101216.85;111340;1192;137682;-78
2021/10/28 16:00:59;;;;;;;0.40;0.20;;;;;;;14.09;60.45;101217.52;111884;1192;108007;-78
2021/10/28 16:22:56;;;;;;;0.40;0.20;;;;;;;13.65;61.56;101224.41;111524;1195;109226;-77
2021/10/28 16:25:24;;;;;;;0.40;0.20;;;;;;;13.66;61.55;101222.23;111485;1196;138413;-77
2021/10/28 16:27:52;;;;;;;0.40;0.20;;;;;;;13.71;61.24;101220.14;111657;1192;95366;-78
2021/10/28 16:30:20;;;;;;;0.40;0.20;;;;;;;13.71;61.25;101222.64;111827;1192;95403;-77
2021/10/28 16:32:48;;;;;;;0.40;0.20;;;;;;;13.67;61.48;101219.50;111732;1192;137636;-77
2021/10/28 16:35:16;;;;;;;0.40;0.20;;;;;;;13.55;61.79;101218.05;111581;1194;108478;-77
2021/10/28 16:37:44;;;;;;;0.40;0.20;;;;;;;13.46;62.11;101221.31;111610;1193;138478;-78
2021/10/28 16:40:12;;;;;;;0.40;0.20;;;;;;;13.30;62.53;101218.30;111772;1192;96094;-76
2021/10/28 16:42:40;;;;;;;0.40;0.20;;;;;;;13.19;62.79;101213.91;111780;1192;107291;-78
2021/10/28 16:45:09;;;;;;;0.40;0.20;;;;;;;13.19;62.98;101215.36;111542;1192;139579;-79
2021/10/28 16:47:36;;;;;;;0.40;0.20;;;;;;;13.16;62.93;101217.02;111431;1195;94960;-78
2021/10/28 16:50:05;;;;;;;0.40;0.20;;;;;;;13.05;63.40;101226.01;111633;1192;138826;-77
2021/10/28 16:52:33;;;;;;;0.40;0.20;;;;;;;12.96;63.65;101226.38;111711;1192;108036;-78
2021/10/28 16:55:00;;;;;;;0.40;0.20;;;;;;;12.87;63.95;101228.38;111614;1193;107099;-78
2021/10/28 16:57:28;;;;;;;0.40;0.20;;;;;;;12.81;64.25;101230.10;111563;1193;138768;-79
2021/10/28 16:59:56;;;;;;;0.40;0.20;;;;;;;12.76;64.37;101229.52;111760;1193;95020;-77
2021/10/28 17:02:24;;;;;;;0.40;0.20;;;;;;;12.69;64.64;101230.01;111438;1193;137795;-77
2021/10/28 17:04:52;;;;;;;0.40;0.20;;;;;;;12.65;64.89;101231.53;111629;1194;108052;-78
2021/10/28 17:07:20;;;;;;;0.40;0.20;;;;;;;12.62;64.85;101235.50;112003;1192;94886;-77
2021/10/28 17:09:49;;;;;;;0.40;0.20;;;;;;;12.61;64.99;101236.45;111690;1192;138039;-79
2021/10/28 17:12:17;;;;;;;0.40;0.20;;;;;;;12.55;65.03;101235.48;111827;1195;108484;-79
2021/10/28 17:14:45;;;;;;;0.40;0.20;;;;;;;12.52;65.34;101237.85;111710;1192;140550;-77
2021/10/28 17:17:14;;;;;;;0.40;0.20;;;;;;;12.51;65.31;101240.38;111795;1192;94928;-77
2021/10/28 17:19:45;;;;;;;0.40;0.20;;;;;;;12.48;65.38;101239.02;111714;1192;138043;-77
2021/10/28 17:22:13;;;;;;;0.40;0.20;;;;;;;12.44;65.56;101240.70;111639;1193;108300;-78
2021/10/28 17:24:49;;;;;;;0.40;0.30;;;;;;;12.42;65.57;101239.85;111731;1193;108465;-78
2021/10/28 17:27:18;;;;;;;0.40;0.20;;;;;;;12.38;65.62;101241.88;111459;1193;138006;-78
2021/10/28 17:29:47;;;;;;;0.40;0.20;;;;;;;12.32;65.74;101248.06;111476;1192;94945;-78
2021/10/28 17:32:14;;;;;;;0.40;0.30;;;;;;;12.27;65.98;101241.77;111490;1192;139601;-78
2021/10/28 17:34:43;;;;;;;0.40;0.20;;;;;;;12.25;65.96;101240.56;111489;1195;108435;-79
2021/10/28 17:37:10;;;;;;;0.40;0.20;;;;;;;12.24;66.03;101239.51;111798;1192;94936;-78
2021/10/28 17:39:38;;;;;;;0.40;0.30;;;;;;;12.24;66.07;101236.13;111466;1192;137960;-79
2021/10/28 17:42:06;;;;;;;0.40;0.30;;;;;;;12.17;66.34;101234.98;111580;1192;108467;-78
2021/10/28 17:44:43;;;;;;;0.40;0.30;;;;;;;12.13;66.46;101237.04;111720;1193;139375;-79
2021/10/28 17:47:12;;;;;;;0.40;0.30;;;;;;;12.11;66.59;101236.91;111670;1193;96627;-79
2021/10/28 17:49:40;;;;;;;0.40;0.20;;;;;;;12.06;66.66;101242.52;111554;1193;138354;-78
2021/10/28 17:52:23;;;;;;;0.40;0.30;;;;;;;12.03;66.66;101239.19;111673;1192;107693;-79
2021/10/28 17:54:51;;;;;;;0.40;0.20;;;;;;;12.04;66.67;101237.04;111697;1193;108568;-78
2021/10/28 17:57:19;;;;;;;0.40;0.20;;;;;;;12.06;66.61;101240.38;111698;1192;138555;-78
2021/10/28 17:59:47;;;;;;;0.40;0.20;;;;;;;12.04;66.62;101239.16;111825;1192;95108;-79
2021/10/28 18:02:15;;;;;;;0.40;0.30;;;;;;;11.99;66.88;101239.98;111664;1192;137820;-79
2021/10/28 18:04:43;;;;;;;0.40;0.30;;;;;;;11.97;66.91;101239.66;111784;1192;108469;-77
2021/10/28 18:07:11;;;;;;;0.40;0.30;;;;;;;11.96;66.74;101238.61;111671;1196;95527;-79
2021/10/28 18:09:43;;;;;;;0.40;0.20;;;;;;;11.92;67.04;101234.02;111543;1193;137443;-77
2021/10/28 18:12:11;;;;;;;0.40;0.30;;;;;;;11.87;67.16;101235.17;111682;1193;107387;-79
2021/10/28 18:14:39;;;;;;;0.40;0.30;;;;;;;11.82;67.54;101238.12;111590;1193;138875;-79
2021/10/28 18:17:08;;;;;;;0.40;0.30;;;;;;;11.81;67.50;101234.92;111943;1192;95403;-80
2021/10/28 18:19:36;;;;;;;0.40;0.20;;;;;;;11.78;67.58;101236.59;112135;1192;138232;-79
2021/10/28 18:22:05;;;;;;;0.40;0.30;;;;;;;11.73;67.68;101234.90;112263;1192;108278;-79
2021/10/28 18:24:33;;;;;;;0.40;0.20;;;;;;;11.73;67.67;101233.46;111890;1192;107069;-77
2021/10/28 18:27:03;;;;;;;0.40;0.30;;;;;;;11.73;67.82;101229.20;111516;1192;138838;-78
2021/10/28 18:29:31;;;;;;;0.40;0.20;;;;;;;11.73;67.79;101224.93;111617;1193;94955;-79
2021/10/28 18:31:59;;;;;;;0.40;0.30;;;;;;;11.78;67.82;101228.94;111477;1192;139281;-78
2021/10/28 18:34:26;;;;;;;0.40;0.30;;;;;;;11.80;67.70;101228.18;111570;1192;109436;-78
2021/10/28 18:36:54;;;;;;;0.40;0.20;;;;;;;11.81;67.67;101225.33;111743;1192;95263;-78
2021/10/28 18:39:22;;;;;;;0.40;0.20;;;;;;;11.86;67.61;101225.05;111519;1195;137833;-77
2021/10/28 18:41:51;;;;;;;0.40;0.30;;;;;;;11.83;67.62;101219.06;111497;1193;108500;-77
2021/10/28 18:44:22;;;;;;;0.40;0.30;;;;;;;11.79;67.86;101218.43;111573;1198;138532;-78
2021/10/28 18:46:55;;;;;;;0.40;0.30;;;;;;;11.76;67.92;101218.31;111806;1192;94912;-78
2021/10/28 18:49:24;;;;;;;0.40;0.30;;;;;;;11.76;67.93;101214.91;111752;1192;94899;-77
2021/10/28 18:51:51;;;;;;;0.40;0.30;;;;;;;11.75;67.93;101215.84;111459;1196;137495;-77
2021/10/28 18:54:21;;;;;;;0.40;0.30;;;;;;;11.70;68.21;101216.45;111863;1192;108936;-78
2021/10/28 18:56:49;;;;;;;0.40;0.30;;;;;;;11.67;68.30;101213.10;111652;1193;138579;-78
2021/10/28 18:59:17;;;;;;;0.40;0.20;;;;;;;11.69;68.21;101212.20;111869;1192;94873;-78
2021/10/28 19:01:48;;;;;;;0.40;0.30;;;;;;;11.67;68.36;101205.64;111648;1192;137643;-78
2021/10/28 19:04:17;;;;;;;0.40;0.30;;;;;;;11.65;68.31;101207.10;111509;1195;108581;-78
2021/10/28 19:06:46;;;;;;;0.40;0.30;;;;;;;11.63;68.46;101209.29;111823;1192;95322;-78
2021/10/28 19:09:17;;;;;;;0.40;0.30;;;;;;;11.63;68.40;101208.55;111711;1192;137952;-78
2021/10/28 19:11:45;;;;;;;0.40;0.30;;;;;;;11.67;68.33;101207.06;111740;1193;108213;-78
2021/10/28 19:14:13;;;;;;;0.40;0.20;;;;;;;11.63;68.42;101205.90;111661;1192;138859;-77
2021/10/28 19:16:41;;;;;;;0.40;0.30;;;;;;;11.63;68.44;101205.91;111801;1192;95369;-78
2021/10/28 19:19:10;;;;;;;0.40;0.20;;;;;;;11.64;68.36;101208.91;111658;1194;95311;-78
2021/10/28 19:21:39;;;;;;;0.40;0.30;;;;;;;11.64;68.28;101206.41;111279;1195;137876;-78
2021/10/28 19:24:07;;;;;;;0.40;0.30;;;;;;;11.63;68.40;101203.40;111656;1193;109425;-79
2021/10/28 19:26:35;;;;;;;0.40;0.30;;;;;;;11.57;68.68;101206.36;111375;1194;138656;-77
2021/10/28 19:29:06;;;;;;;0.40;0.20;;;;;;;11.50;68.79;101202.21;111422;1195;94895;-78
2021/10/28 19:31:40;;;;;;;0.40;0.20;;;;;;;11.44;69.08;101201.42;111428;1192;138948;-78
2021/10/28 19:34:08;;;;;;;0.40;0.30;;;;;;;11.39;69.26;101198.66;111758;1192;108977;-79
2021/10/28 19:36:51;;;;;;;0.40;0.40;;;;;;;11.35;69.36;101198.19;111745;1192;95221;-78
2021/10/28 19:47:14;;;;;;;0.40;0.30;;;;;;;11.14;70.08;101195.15;111790;1193;94866;-78
2021/10/28 19:49:44;;;;;;;0.40;0.30;;;;;;;11.12;70.02;101195.36;111328;1195;140963;-78
2021/10/28 19:52:13;;;;;;;0.40;0.30;;;;;;;11.09;70.20;101191.85;111667;1193;108507;-78
2021/10/28 19:54:42;;;;;;;0.40;0.30;;;;;;;11.02;70.44;101191.25;111882;1193;108219;-79
2021/10/28 19:57:16;;;;;;;0.40;0.30;;;;;;;11.00;70.46;101189.69;111776;1192;138981;-78
2021/10/28 20:00:13;;;;;;;0.40;0.30;;;;;;;10.99;70.49;101191.11;111812;1192;94888;-78
2021/10/28 20:21:35;;;;;;;0.40;0.30;;;;;;;10.86;70.40;101195.41;111730;1192;138647;-76
2021/10/28 20:24:03;;;;;;;0.40;0.30;;;;;;;10.84;70.33;101194.89;111700;1192;108077;-78
2021/10/28 20:26:31;;;;;;;0.40;0.30;;;;;;;10.82;70.54;101193.69;111590;1193;139310;-77
2021/10/28 20:29:00;;;;;;;0.40;0.30;;;;;;;10.79;70.44;101193.37;111671;1192;95423;-78
2021/10/28 20:31:30;;;;;;;0.40;0.30;;;;;;;10.76;70.58;101193.95;111640;1193;95224;-78
2021/10/28 20:34:36;;;;;;;0.40;0.30;;;;;;;10.76;70.52;101195.71;111775;1192;137445;-78
2021/10/28 20:37:11;;;;;;;0.40;0.30;;;;;;;10.75;70.53;101194.32;111666;1195;108600;-79
2021/10/28 20:39:42;;;;;;;0.40;0.30;;;;;;;10.78;70.28;101195.86;111513;1193;138669;-77
2021/10/28 20:42:16;;;;;;;0.40;0.30;;;;;;;10.75;70.33;101191.83;111947;1192;94970;-78